Time;durP1;ratioP1;P1;durP2;ratioP2;P2;SDS_P1;SDS_P2;PMS_P1;PMS_P2;Temp;Humidity;BMP_temperature;BMP_pressure;BME280_temperature;BME280_humidity;BME280_pressure;Samples;Min_cycle;Max_cycle;Signal;HPM_P1;HPM_P2
2022/11/26 00:00:49;;;;;;;13.23;10.40;;;9.60;1.00;;;;;;5051522;28;20593;-64
2022/11/26 00:03:15;;;;;;;13.00;10.93;;;9.50;1.00;;;;;;5048301;28;20945;-63
2022/11/26 00:05:44;;;;;;;15.80;11.73;;;9.20;1.00;;;;;;5045587;28;20938;-63
2022/11/26 00:08:33;;;;;;;17.53;11.03;;;9.40;1.00;;;;;;5045364;28;20454;-63
2022/11/26 00:10:59;;;;;;;13.77;11.10;;;9.40;1.00;;;;;;5047709;28;20427;-63
2022/11/26 00:13:28;;;;;;;19.70;11.17;;;9.30;1.00;;;;;;5045025;28;20431;-63
2022/11/26 00:15:54;;;;;;;18.40;11.60;;;9.40;1.00;;;;;;5044314;28;20830;-62
2022/11/26 00:18:22;;;;;;;15.70;11.30;;;9.40;1.00;;;;;;5053177;28;20445;-63
2022/11/26 00:20:52;;;;;;;13.83;10.50;;;9.50;1.00;;;;;;5049231;28;20917;-63
2022/11/26 00:23:21;;;;;;;15.40;11.00;;;9.60;1.00;;;;;;5045833;28;20486;-63
2022/11/26 00:25:53;;;;;;;21.20;11.50;;;9.50;1.00;;;;;;5041877;28;20450;-64
2022/11/26 00:28:34;;;;;;;13.17;10.50;;;9.40;1.00;;;;;;5046724;28;20507;-63
2022/11/26 00:31:04;;;;;;;20.13;11.57;;;9.40;1.00;;;;;;5043067;28;20960;-63
2022/11/26 00:33:30;;;;;;;13.37;10.73;;;9.50;1.00;;;;;;5046251;28;20445;-63
2022/11/26 00:36:17;;;;;;;16.20;11.50;;;9.50;1.00;;;;;;5044892;28;20479;-63
2022/11/26 00:38:46;;;;;;;18.70;10.63;;;9.50;1.00;;;;;;5043063;28;20283;-63
2022/11/26 00:41:21;;;;;;;14.97;11.07;;;9.60;1.00;;;;;;5042548;28;20454;-62
2022/11/26 00:43:48;;;;;;;12.47;9.60;;;9.60;1.00;;;;;;5045622;28;20432;-62
2022/11/26 00:46:15;;;;;;;16.20;11.10;;;9.60;1.00;;;;;;5045418;28;20423;-63
2022/11/26 00:48:40;;;;;;;13.30;9.73;;;9.60;1.00;;;;;;5049666;28;20435;-62
2022/11/26 00:51:19;;;;;;;15.10;9.67;;;9.50;1.00;;;;;;5047355;28;20425;-64
2022/11/26 00:53:46;;;;;;;16.10;10.10;;;9.60;1.00;;;;;;5049386;28;20223;-64
2022/11/26 00:56:20;;;;;;;24.07;10.80;;;9.60;1.00;;;;;;5044508;28;20478;-62
2022/11/26 00:58:48;;;;;;;14.93;10.00;;;9.60;1.00;;;;;;5044769;28;20449;-63
2022/11/26 01:01:27;;;;;;;16.00;9.60;;;9.60;1.00;;;;;;5049013;28;20755;-63
2022/11/26 01:03:53;;;;;;;14.33;9.77;;;9.60;1.00;;;;;;5045896;28;20449;-63
2022/11/26 01:06:26;;;;;;;13.00;10.10;;;9.70;1.00;;;;;;5043282;28;20987;-63
2022/11/26 01:08:52;;;;;;;20.83;9.30;;;9.60;1.00;;;;;;5044191;28;20907;-63
2022/11/26 01:11:22;;;;;;;13.60;10.20;;;9.50;1.00;;;;;;5047660;28;20439;-64
2022/11/26 01:13:49;;;;;;;14.17;10.17;;;9.50;1.00;;;;;;5047176;28;20201;-62
2022/11/26 01:16:20;;;;;;;17.00;10.00;;;9.50;1.00;;;;;;5044382;28;20562;-63
2022/11/26 01:18:47;;;;;;;11.93;10.13;;;9.70;1.00;;;;;;5045115;28;20450;-62
2022/11/26 01:21:14;;;;;;;14.10;10.83;;;9.60;1.00;;;;;;5046287;28;21065;-62
2022/11/26 01:23:40;;;;;;;17.10;11.90;;;9.60;1.00;;;;;;5046048;28;20509;-63
2022/11/26 01:26:10;;;;;;;14.07;9.60;;;9.60;1.00;;;;;;5043200;28;20447;-62
2022/11/26 01:28:36;;;;;;;17.00;9.67;;;;;;;;;;5038651;28;20188;-64
2022/11/26 01:31:01;;;;;;;13.43;9.30;;;9.50;1.00;;;;;;5041837;28;20541;-62
2022/11/26 01:33:27;;;;;;;14.87;11.27;;;9.40;1.00;;;;;;5046882;28;21054;-62
2022/11/26 01:35:52;;;;;;;15.13;11.10;;;9.30;1.00;;;;;;5044499;28;20234;-63
2022/11/26 01:38:18;;;;;;;14.13;10.50;;;9.40;1.00;;;;;;5045145;28;21643;-62
2022/11/26 01:40:48;;;;;;;15.47;10.60;;;9.50;1.00;;;;;;5045415;28;20211;-62
2022/11/26 01:43:16;;;;;;;16.50;10.30;;;9.50;1.00;;;;;;5047060;28;20623;-63
2022/11/26 01:45:41;;;;;;;14.93;9.40;;;9.50;1.00;;;;;;5045683;28;20447;-62
2022/11/26 01:48:30;;;;;;;17.87;9.87;;;9.40;1.00;;;;;;5047857;28;21102;-62
2022/11/26 01:50:58;;;;;;;15.17;11.40;;;9.50;1.00;;;;;;5043537;28;20204;-62
2022/11/26 01:53:32;;;;;;;17.20;10.50;;;9.50;1.00;;;;;;5047424;28;20466;-62
2022/11/26 01:56:02;;;;;;;14.00;9.80;;;9.60;1.00;;;;;;5044500;28;20484;-63
2022/11/26 01:58:41;;;;;;;19.40;10.93;;;9.50;1.00;;;;;;5043822;28;20431;-62
2022/11/26 02:01:07;;;;;;;14.67;10.80;;;9.60;1.00;;;;;;5045817;28;20447;-62
2022/11/26 02:03:41;;;;;;;14.93;10.87;;;9.60;1.00;;;;;;5044912;28;20446;-63
2022/11/26 02:06:13;;;;;;;14.60;10.40;;;9.60;1.00;;;;;;5040194;28;20544;-62
2022/11/26 02:08:40;;;;;;;20.80;11.87;;;9.50;1.00;;;;;;5045139;28;20511;-62
2022/11/26 02:11:18;;;;;;;16.30;10.87;;;9.20;1.00;;;;;;5037294;28;20417;-62
2022/11/26 02:13:47;;;;;;;16.63;10.90;;;9.50;1.00;;;;;;5043488;28;20597;-63
2022/11/26 02:16:23;;;;;;;17.40;11.57;;;9.60;1.00;;;;;;5045673;28;20444;-62
2022/11/26 02:19:10;;;;;;;18.03;11.50;;;9.60;1.00;;;;;;5047688;28;20454;-62
2022/11/26 02:21:39;;;;;;;15.83;10.93;;;9.60;1.00;;;;;;5042935;28;20453;-62
2022/11/26 02:24:24;;;;;;;15.47;10.40;;;9.50;1.00;;;;;;5051499;28;20442;-63
2022/11/26 02:27:47;;;;;;;13.53;9.80;;;9.40;1.00;;;;;;5044262;28;20500;-63
2022/11/26 02:30:14;;;;;;;12.27;10.30;;;9.50;1.00;;;;;;5002561;28;20459;-62
2022/11/26 02:32:43;;;;;;;18.97;11.90;;;9.50;1.00;;;;;;5003570;28;20464;-62
2022/11/26 02:35:17;;;;;;;17.80;10.60;;;9.60;1.00;;;;;;5022296;28;20928;-63
2022/11/26 02:37:58;;;;;;;17.67;11.07;;;9.60;1.00;;;;;;5047128;28;20476;-61
2022/11/26 02:40:24;;;;;;;18.73;11.27;;;9.50;1.00;;;;;;5045932;28;20429;-63
2022/11/26 02:42:50;;;;;;;17.53;11.40;;;9.60;1.00;;;;;;5042329;28;20504;-63
2022/11/26 02:45:20;;;;;;;18.20;11.60;;;9.60;1.00;;;;;;5040213;28;20446;-63
2022/11/26 02:47:51;;;;;;;17.77;11.93;;;7.40;1.00;;;;;;5044339;28;20185;-63
2022/11/26 02:50:38;;;;;;;20.23;12.93;;;9.50;1.00;;;;;;5042461;28;20426;-62
2022/11/26 02:53:05;;;;;;;16.57;11.97;;;9.60;1.00;;;;;;5042444;28;20469;-62
2022/11/26 02:55:36;;;;;;;19.47;10.70;;;9.50;1.00;;;;;;5043773;28;20522;-63
2022/11/26 02:58:02;;;;;;;19.20;11.60;;;9.50;1.00;;;;;;5056218;28;20436;-62
2022/11/26 03:00:28;;;;;;;16.13;10.50;;;9.50;1.00;;;;;;5044124;28;20948;-62
2022/11/26 03:03:10;;;;;;;18.13;11.43;;;9.50;1.00;;;;;;5041475;28;20601;-64
2022/11/26 03:05:39;;;;;;;17.97;11.90;;;9.40;1.00;;;;;;5046823;28;20463;-63
2022/11/26 03:08:06;;;;;;;14.27;11.33;;;9.50;1.00;;;;;;5062162;28;20426;-61
2022/11/26 03:10:32;;;;;;;15.70;10.63;;;9.60;1.00;;;;;;5041344;28;20953;-63
2022/11/26 03:12:58;;;;;;;18.50;10.70;;;9.70;1.00;;;;;;5040486;28;20763;-64
2022/11/26 03:15:24;;;;;;;16.90;11.03;;;9.70;1.00;;;;;;5040590;28;20436;-62
2022/11/26 03:17:50;;;;;;;15.40;11.20;;;9.70;1.00;;;;;;5047591;28;20444;-63
2022/11/26 03:20:16;;;;;;;19.53;11.37;;;12.50;1.00;;;;;;5046963;28;20501;-63
2022/11/26 03:22:42;;;;;;;14.37;11.40;;;9.60;1.00;;;;;;5048470;28;20578;-63
2022/11/26 03:25:09;;;;;;;19.47;10.70;;;9.70;1.00;;;;;;5042456;28;20414;-67
2022/11/26 03:27:34;;;;;;;16.93;11.73;;;9.60;1.00;;;;;;5048566;28;20188;-63
2022/11/26 03:30:00;;;;;;;16.37;11.33;;;9.50;1.00;;;;;;5044674;28;20473;-62
2022/11/26 03:32:26;;;;;;;14.90;10.67;;;9.50;1.00;;;;;;5051735;28;20241;-62
2022/11/26 03:34:51;;;;;;;17.80;10.90;;;9.50;1.00;;;;;;5049486;28;20192;-62
2022/11/26 03:37:17;;;;;;;19.90;11.87;;;9.40;1.00;;;;;;5057521;28;20218;-62
2022/11/26 03:39:43;;;;;;;16.13;10.47;;;9.40;1.00;;;;;;5048617;28;20245;-63
2022/11/26 03:42:09;;;;;;;15.97;9.30;;;9.40;1.00;;;;;;5046923;28;20197;-62
2022/11/26 03:44:35;;;;;;;15.50;10.57;;;9.40;1.00;;;;;;5051887;28;20181;-63
2022/11/26 03:47:01;;;;;;;18.70;11.13;;;9.40;1.00;;;;;;5047162;28;20207;-62
2022/11/26 03:49:27;;;;;;;18.33;10.97;;;9.30;1.00;;;;;;5046501;28;20807;-63
2022/11/26 03:51:52;;;;;;;16.20;11.20;;;9.30;1.00;;;;;;5046859;28;20534;-63
2022/11/26 03:54:18;;;;;;;15.73;11.20;;;9.30;1.00;;;;;;5047367;28;20239;-63
2022/11/26 03:56:43;;;;;;;15.47;11.03;;;9.20;1.00;;;;;;5047048;28;20242;-63
2022/11/26 03:59:09;;;;;;;19.37;11.30;;;9.20;1.00;;;;;;5045889;28;20189;-63
2022/11/26 04:01:35;;;;;;;21.40;12.80;;;9.20;1.00;;;;;;5049237;28;20193;-63
2022/11/26 04:04:00;;;;;;;22.83;13.80;;;9.30;1.00;;;;;;5041720;28;20193;-63
2022/11/26 04:06:26;;;;;;;18.83;12.27;;;9.30;1.00;;;;;;5046997;28;20469;-63
2022/11/26 04:08:52;;;;;;;17.00;11.53;;;9.30;1.00;;;;;;5046023;28;20272;-64
2022/11/26 04:11:17;;;;;;;18.30;13.03;;;9.40;1.00;;;;;;5039933;28;20233;-63
2022/11/26 04:13:43;;;;;;;18.03;11.67;;;9.30;1.00;;;;;;5043556;28;20241;-63
2022/11/26 04:16:09;;;;;;;19.43;12.40;;;9.20;1.00;;;;;;5047010;28;20211;-63
2022/11/26 04:18:35;;;;;;;19.10;11.33;;;9.20;1.00;;;;;;5043810;28;20192;-63
2022/11/26 04:21:00;;;;;;;16.03;12.10;;;9.20;1.00;;;;;;5048044;28;20207;-64
2022/11/26 04:23:26;;;;;;;19.77;12.07;;;9.30;1.00;;;;;;5046167;28;20454;-65
2022/11/26 04:25:52;;;;;;;19.23;12.10;;;9.40;1.00;;;;;;5042464;28;20683;-63
2022/11/26 04:28:17;;;;;;;18.17;13.50;;;9.40;1.00;;;;;;5046508;28;20629;-64
2022/11/26 04:30:43;;;;;;;17.77;12.80;;;9.40;1.00;;;;;;5048065;28;20653;-64
2022/11/26 04:33:09;;;;;;;17.60;12.93;;;9.40;1.00;;;;;;5045394;28;20201;-64
2022/11/26 04:35:35;;;;;;;23.10;13.90;;;;;;;;;;5043551;28;20224;-65
2022/11/26 04:38:01;;;;;;;18.93;12.23;;;9.40;1.00;;;;;;5049445;28;20542;-63
2022/11/26 04:40:26;;;;;;;17.27;13.63;;;9.50;1.00;;;;;;5046422;28;20436;-63
2022/11/26 04:42:52;;;;;;;22.77;12.50;;;9.50;1.00;;;;;;5044162;28;20298;-63
2022/11/26 04:45:17;;;;;;;25.27;15.60;;;9.60;1.00;;;;;;5046689;28;20662;-63
2022/11/26 04:47:43;;;;;;;20.43;13.40;;;9.50;1.00;;;;;;5038995;28;20198;-64
2022/11/26 04:50:09;;;;;;;22.07;13.17;;;9.50;1.00;;;;;;5046366;28;20307;-64
2022/11/26 04:52:35;;;;;;;19.60;14.23;;;9.50;1.00;;;;;;5048831;28;20589;-64
2022/11/26 04:55:00;;;;;;;22.00;12.60;;;9.40;1.00;;;;;;5049878;28;20555;-63
2022/11/26 04:57:26;;;;;;;21.87;13.80;;;9.50;1.00;;;;;;5041961;28;20253;-62
2022/11/26 04:59:52;;;;;;;25.33;15.43;;;;;;;;;;5045698;28;20779;-63
2022/11/26 05:02:17;;;;;;;21.10;12.27;;;9.40;1.00;;;;;;5048711;28;20196;-64
2022/11/26 05:04:43;;;;;;;20.17;14.23;;;9.40;1.00;;;;;;5050635;28;20934;-63
2022/11/26 05:07:09;;;;;;;20.23;13.53;;;9.40;1.00;;;;;;5048867;28;20195;-62
2022/11/26 05:09:35;;;;;;;22.40;16.43;;;;;;;;;;5042150;28;20191;-62
2022/11/26 05:12:00;;;;;;;23.73;14.20;;;9.30;1.00;;;;;;5035542;28;20202;-64
2022/11/26 05:14:26;;;;;;;23.30;13.97;;;9.40;1.00;;;;;;5044841;28;21018;-63
2022/11/26 05:16:51;;;;;;;26.90;14.10;;;9.40;1.00;;;;;;5041489;28;20214;-62
2022/11/26 05:19:17;;;;;;;22.70;13.90;;;9.50;1.00;;;;;;5033044;28;20262;-63
2022/11/26 05:21:43;;;;;;;26.77;15.70;;;9.50;1.00;;;;;;5025743;28;20188;-63
2022/11/26 05:24:08;;;;;;;25.90;14.10;;;9.50;1.00;;;;;;5014685;28;20629;-62
2022/11/26 05:26:34;;;;;;;20.50;13.93;;;9.50;1.00;;;;;;5034145;28;20195;-64
2022/11/26 05:29:00;;;;;;;21.20;13.30;;;9.50;1.00;;;;;;5031761;28;20199;-62
2022/11/26 05:31:27;;;;;;;22.40;14.60;;;9.60;1.00;;;;;;5037458;28;20203;-63
2022/11/26 05:33:53;;;;;;;21.70;14.27;;;9.50;1.00;;;;;;5046844;28;20235;-63
2022/11/26 05:36:20;;;;;;;22.57;15.10;;;9.40;1.00;;;;;;5041945;28;20512;-63
2022/11/26 05:38:46;;;;;;;25.43;14.50;;;9.50;1.00;;;;;;5040485;28;20195;-63
2022/11/26 05:41:11;;;;;;;22.20;13.70;;;9.50;1.00;;;;;;5041112;28;20450;-63
2022/11/26 05:43:37;;;;;;;21.83;14.70;;;9.50;1.00;;;;;;5043513;28;20199;-63
2022/11/26 05:46:05;;;;;;;20.17;15.13;;;9.60;1.00;;;;;;5045263;28;20659;-63
2022/11/26 05:48:30;;;;;;;22.70;15.27;;;9.60;1.00;;;;;;5040906;28;20193;-62
2022/11/26 05:51:00;;;;;;;22.00;14.60;;;9.70;1.00;;;;;;5042256;28;21693;-63
2022/11/26 05:53:25;;;;;;;18.63;14.00;;;9.60;1.00;;;;;;5044175;28;20247;-62
2022/11/26 05:55:51;;;;;;;22.57;14.50;;;9.50;1.00;;;;;;5042923;28;20510;-63
2022/11/26 05:58:17;;;;;;;23.23;15.10;;;9.50;1.00;;;;;;5048058;28;20181;-63
2022/11/26 06:00:42;;;;;;;20.70;14.20;;;9.50;1.00;;;;;;5043541;28;20226;-63
2022/11/26 06:03:08;;;;;;;24.43;14.83;;;;;;;;;;5044903;28;20192;-63
2022/11/26 06:05:34;;;;;;;28.53;16.33;;;9.50;1.00;;;;;;5045301;28;20891;-63
2022/11/26 06:08:00;;;;;;;32.03;15.90;;;;;;;;;;5042626;28;20727;-62
2022/11/26 06:10:26;;;;;;;25.20;17.17;;;9.50;1.00;;;;;;5052506;28;20185;-62
2022/11/26 06:12:51;;;;;;;26.00;15.50;;;9.30;1.00;;;;;;5038722;28;20443;-64
2022/11/26 06:15:17;;;;;;;25.33;16.53;;;9.30;1.00;;;;;;5046297;28;20940;-63
2022/11/26 06:17:43;;;;;;;26.33;16.33;;;9.40;1.00;;;;;;5040504;28;20234;-62
2022/11/26 06:20:09;;;;;;;25.83;16.40;;;9.30;1.00;;;;;;5043714;28;20210;-64
2022/11/26 06:22:37;;;;;;;27.27;15.50;;;9.40;1.00;;;;;;5045228;28;20195;-62
2022/11/26 06:25:03;;;;;;;26.60;17.80;;;9.50;1.00;;;;;;5044691;28;20447;-63
2022/11/26 06:27:31;;;;;;;23.13;15.00;;;9.40;1.00;;;;;;5044886;28;20887;-63
2022/11/26 06:29:57;;;;;;;24.30;16.63;;;9.40;1.00;;;;;;5044101;28;20436;-63
2022/11/26 06:32:23;;;;;;;30.13;17.90;;;;;;;;;;5043789;28;20426;-63
2022/11/26 06:34:48;;;;;;;24.33;15.67;;;9.40;1.00;;;;;;5040873;28;20195;-63
2022/11/26 06:37:14;;;;;;;26.13;16.50;;;9.40;1.00;;;;;;5046235;28;21073;-63
2022/11/26 06:39:39;;;;;;;24.50;15.63;;;9.40;1.00;;;;;;5044681;28;20206;-63
2022/11/26 06:42:05;;;;;;;25.30;16.67;;;9.50;1.00;;;;;;5050628;28;20196;-64
2022/11/26 06:44:30;;;;;;;24.90;16.57;;;9.50;1.00;;;;;;5050642;28;20262;-63
2022/11/26 06:46:56;;;;;;;27.07;15.87;;;9.50;1.00;;;;;;5041986;28;20665;-63
2022/11/26 06:49:22;;;;;;;26.83;17.30;;;9.50;1.00;;;;;;5043355;28;20193;-63
2022/11/26 06:51:47;;;;;;;28.57;15.70;;;;;;;;;;5042092;28;20188;-62
2022/11/26 06:54:13;;;;;;;29.27;16.50;;;9.50;1.00;;;;;;5045686;28;20275;-63
2022/11/26 06:56:39;;;;;;;22.77;14.93;;;9.60;1.00;;;;;;5044335;28;20571;-64
2022/11/26 06:59:04;;;;;;;24.40;14.30;;;9.60;1.00;;;;;;5044982;28;20191;-63
2022/11/26 07:01:30;;;;;;;25.17;15.00;;;9.50;1.00;;;;;;5045551;28;20189;-62
2022/11/26 07:03:55;;;;;;;28.70;15.70;;;9.40;1.00;;;;;;5046732;28;20630;-63
2022/11/26 07:06:24;;;;;;;20.07;13.90;;;9.40;1.00;;;;;;5048160;28;20192;-63
2022/11/26 07:08:51;;;;;;;21.90;14.43;;;9.50;1.00;;;;;;5052543;28;20182;-63
2022/11/26 07:11:17;;;;;;;28.57;15.40;;;9.40;1.00;;;;;;5056224;28;20438;-63
2022/11/26 07:13:43;;;;;;;23.37;15.83;;;9.50;1.00;;;;;;5049970;28;20417;-63
2022/11/26 07:16:09;;;;;;;23.47;13.93;;;9.60;1.00;;;;;;5046995;28;20491;-63
2022/11/26 07:18:35;;;;;;;27.67;15.87;;;9.60;1.00;;;;;;5049514;28;20420;-63
2022/11/26 07:21:09;;;;;;;25.43;15.20;;;9.60;1.00;;;;;;5045645;28;20184;-63
2022/11/26 07:23:34;;;;;;;23.60;14.60;;;9.60;1.00;;;;;;5051061;28;20438;-66
2022/11/26 07:26:01;;;;;;;21.70;14.57;;;9.60;1.00;;;;;;5050788;28;21036;-63
2022/11/26 07:28:27;;;;;;;20.70;13.17;;;9.50;1.00;;;;;;5049586;28;20453;-64
2022/11/26 07:30:53;;;;;;;24.13;14.37;;;11.60;1.00;;;;;;5047205;28;20448;-63
2022/11/26 07:33:19;;;;;;;21.83;14.47;;;9.50;1.00;;;;;;5058911;28;20995;-64
2022/11/26 07:35:44;;;;;;;26.17;15.53;;;9.60;1.00;;;;;;5054157;28;20216;-64
2022/11/26 07:38:10;;;;;;;24.60;14.53;;;9.60;1.00;;;;;;5046316;28;20274;-64
2022/11/26 07:40:35;;;;;;;20.43;13.70;;;9.60;1.00;;;;;;5049414;28;20185;-63
2022/11/26 07:43:01;;;;;;;21.13;13.27;;;9.60;1.00;;;;;;5038944;28;20207;-64
2022/11/26 07:45:27;;;;;;;20.67;13.57;;;9.60;1.00;;;;;;5048695;28;20194;-62
2022/11/26 07:47:52;;;;;;;22.70;13.17;;;9.60;1.00;;;;;;5046354;28;20595;-64
2022/11/26 07:50:18;;;;;;;21.33;13.80;;;9.60;1.00;;;;;;5046905;28;20208;-63
2022/11/26 07:52:43;;;;;;;25.90;13.63;;;9.50;1.00;;;;;;5045603;28;20731;-62
2022/11/26 07:55:09;;;;;;;25.70;14.67;;;9.60;1.00;;;;;;5045672;28;20228;-64
2022/11/26 07:57:35;;;;;;;18.67;12.70;;;9.70;1.00;;;;;;5047940;28;20211;-64
2022/11/26 08:00:00;;;;;;;21.50;12.23;;;9.70;1.00;;;;;;5046915;28;20617;-64
2022/11/26 08:02:26;;;;;;;20.40;12.47;;;9.60;1.00;;;;;;5041559;28;20192;-64
2022/11/26 08:04:51;;;;;;;19.57;12.33;;;9.70;1.00;;;;;;5049334;28;20188;-63
2022/11/26 08:07:17;;;;;;;23.70;11.57;;;9.80;1.00;;;;;;5046617;28;20191;-64
2022/11/26 08:09:43;;;;;;;16.73;11.53;;;9.80;1.00;;;;;;5051542;28;20700;-62
2022/11/26 08:12:08;;;;;;;21.27;12.43;;;9.80;1.00;;;;;;5041253;28;20658;-63
2022/11/26 08:14:34;;;;;;;22.90;13.70;;;9.90;1.00;;;;;;5048184;28;20235;-63
2022/11/26 08:16:59;;;;;;;25.53;13.47;;;10.00;1.00;;;;;;5044399;28;20217;-64
2022/11/26 08:19:25;;;;;;;23.50;13.33;;;10.10;1.00;;;;;;5045956;28;20190;-63
2022/11/26 08:21:51;;;;;;;18.30;11.23;;;10.00;1.00;;;;;;5045509;28;20188;-64
2022/11/26 08:24:18;;;;;;;21.23;11.87;;;10.00;1.00;;;;;;5049325;28;20199;-64
2022/11/26 08:26:44;;;;;;;18.67;11.00;;;10.00;1.00;;;;;;5041937;28;20184;-63
2022/11/26 08:29:10;;;;;;;20.10;11.30;;;10.00;1.00;;;;;;5047643;28;20881;-63
2022/11/26 08:31:39;;;;;;;17.43;10.70;;;10.10;1.00;;;;;;5043511;28;20193;-63
2022/11/26 08:34:05;;;;;;;20.63;9.60;;;10.00;1.00;;;;;;5046977;28;20454;-64
2022/11/26 08:36:31;;;;;;;20.97;9.60;;;;;;;;;;5045071;28;20440;-64
2022/11/26 08:38:58;;;;;;;24.23;9.37;;;10.00;1.00;;;;;;5046219;28;20193;-63
2022/11/26 08:41:23;;;;;;;20.40;9.80;;;10.10;1.00;;;;;;5045875;28;20445;-63
2022/11/26 08:43:49;;;;;;;15.10;7.90;;;10.00;1.00;;;;;;5047489;28;20929;-64
2022/11/26 08:46:15;;;;;;;26.97;11.60;;;9.90;1.00;;;;;;5043926;28;20283;-63
2022/11/26 08:48:41;;;;;;;25.30;12.27;;;9.90;1.00;;;;;;5049594;28;20189;-63
2022/11/26 08:51:10;;;;;;;15.17;8.80;;;9.90;1.00;;;;;;5056699;28;20223;-63
2022/11/26 08:53:36;;;;;;;15.00;9.40;;;9.80;1.00;;;;;;5051033;28;20561;-63
2022/11/26 08:56:10;;;;;;;17.27;9.00;;;9.80;1.00;;;;;;5042617;28;20474;-63
2022/11/26 08:58:38;;;;;;;14.40;9.83;;;9.90;1.00;;;;;;5050240;28;20406;-63
2022/11/26 09:01:23;;;;;;;20.87;10.03;;;10.10;1.00;;;;;;5046343;28;20933;-64
2022/11/26 09:03:53;;;;;;;18.43;8.93;;;10.10;1.00;;;;;;5049356;28;20409;-64
2022/11/26 09:06:20;;;;;;;14.83;8.83;;;10.20;1.00;;;;;;5049039;28;21459;-63
2022/11/26 09:11:33;;;;;;;18.00;8.33;;;10.10;1.00;;;;;;5050118;28;20486;-64
2022/11/26 09:14:00;;;;;;;13.80;8.20;;;;;;;;;;5044064;28;20436;-64
2022/11/26 09:16:26;;;;;;;12.37;7.50;;;10.20;1.00;;;;;;5047319;28;20612;-64
2022/11/26 09:18:51;;;;;;;17.33;7.97;;;10.10;1.00;;;;;;5053564;28;20537;-61
2022/11/26 09:21:18;;;;;;;14.17;8.40;;;10.10;1.00;;;;;;5050027;28;20542;-57
2022/11/26 09:23:43;;;;;;;18.67;8.70;;;10.50;1.00;;;;;;5046181;28;20200;-62
2022/11/26 09:26:09;;;;;;;20.67;8.60;;;10.40;1.00;;;;;;5048471;28;20436;-63
2022/11/26 09:28:35;;;;;;;21.43;8.60;;;10.40;1.00;;;;;;5043644;28;20673;-64
2022/11/26 09:31:01;;;;;;;18.30;8.47;;;10.40;1.00;;;;;;5041662;28;20238;-65
2022/11/26 09:33:28;;;;;;;11.57;7.50;;;10.50;1.00;;;;;;5044973;28;20189;-64
2022/11/26 09:36:02;;;;;;;17.27;9.60;;;10.40;1.00;;;;;;5045468;28;20944;-65
2022/11/26 09:38:28;;;;;;;15.00;6.73;;;;;;;;;;5043815;28;20467;-64
2022/11/26 09:41:28;;;;;;;10.70;6.70;;;10.50;1.00;;;;;;5045819;28;20457;-65
2022/11/26 09:44:21;;;;;;;16.67;7.67;;;10.60;1.00;;;;;;5007310;28;20432;-62
2022/11/26 09:46:51;;;;;;;16.07;6.40;;;10.70;1.00;;;;;;5048588;28;20457;-63
2022/11/26 09:49:17;;;;;;;17.80;7.83;;;10.70;1.00;;;;;;5046014;28;20444;-64
2022/11/26 09:51:45;;;;;;;13.40;7.03;;;10.80;1.00;;;;;;5049336;28;20527;-63
2022/11/26 09:54:20;;;;;;;11.23;6.80;;;10.80;1.00;;;;;;5041983;28;21018;-63
2022/11/26 09:56:52;;;;;;;12.57;6.57;;;10.80;1.00;;;;;;5045254;28;20500;-64
2022/11/26 09:59:21;;;;;;;15.23;7.70;;;10.90;1.00;;;;;;5043538;28;20479;-63
2022/11/26 10:01:46;;;;;;;10.33;6.80;;;11.00;1.00;;;;;;5046167;28;20500;-62
2022/11/26 10:04:30;;;;;;;8.77;7.40;;;11.10;1.00;;;;;;5045710;28;20491;-63
2022/11/26 10:07:24;;;;;;;18.53;6.53;;;11.10;1.00;;;;;;5046138;28;20288;-62
2022/11/26 10:09:55;;;;;;;13.53;7.83;;;10.90;1.00;;;;;;5036727;28;20455;-63
2022/11/26 10:12:42;;;;;;;18.40;7.40;;;10.80;1.00;;;;;;5050086;28;20986;-62
2022/11/26 10:15:19;;;;;;;14.73;7.10;;;10.90;1.00;;;;;;5050639;28;20540;-63
2022/11/26 10:18:03;;;;;;;14.53;7.60;;;10.90;1.00;;;;;;5045446;28;20434;-63
2022/11/26 10:21:02;;;;;;;17.50;6.40;;;10.90;1.00;;;;;;5042273;28;20432;-62
2022/11/26 10:23:56;;;;;;;13.67;5.37;;;10.80;1.00;;;;;;5042907;28;20502;-63
2022/11/26 10:26:28;;;;;;;11.90;6.00;;;10.60;1.00;;;;;;5041418;28;20432;-64
2022/11/26 10:29:20;;;;;;;14.37;5.00;;;10.70;1.00;;;;;;5045594;28;20433;-64
2022/11/26 10:31:46;;;;;;;9.43;4.93;;;10.60;1.00;;;;;;5038457;28;20775;-64
2022/11/26 10:34:36;;;;;;;9.37;5.03;;;10.50;1.00;;;;;;5041909;28;20418;-63
2022/11/26 10:37:02;;;;;;;11.63;5.50;;;10.50;1.00;;;;;;5045500;28;21058;-64
2022/11/26 10:39:28;;;;;;;6.23;4.50;;;10.50;1.00;;;;;;5050148;28;20505;-63
2022/11/26 10:41:54;;;;;;;11.47;5.63;;;10.50;1.00;;;;;;5046523;28;20447;-64
2022/11/26 10:44:41;;;;;;;15.17;5.90;;;10.50;1.00;;;;;;5045921;28;20386;-63
2022/11/26 10:47:30;;;;;;;8.60;5.03;;;10.40;1.00;;;;;;5047790;28;20192;-64
2022/11/26 10:50:01;;;;;;;12.07;5.67;;;10.40;1.00;;;;;;5045992;28;20420;-65
2022/11/26 10:52:29;;;;;;;11.77;6.67;;;10.40;1.00;;;;;;5050355;28;20954;-63
2022/11/26 10:55:18;;;;;;;11.13;5.40;;;10.40;1.00;;;;;;5052823;28;20510;-63
2022/11/26 10:57:52;;;;;;;9.00;4.80;;;10.50;1.00;;;;;;5051177;28;20472;-63
2022/11/26 11:00:39;;;;;;;6.70;4.80;;;10.50;1.00;;;;;;5043126;28;20443;-64
2022/11/26 11:03:19;;;;;;;14.23;5.63;;;10.40;1.00;;;;;;5050041;28;20450;-64
2022/11/26 11:05:45;;;;;;;10.10;5.33;;;10.30;1.00;;;;;;5042180;28;20453;-63
2022/11/26 11:08:31;;;;;;;8.83;5.80;;;10.40;1.00;;;;;;5054084;28;20463;-62
2022/11/26 11:10:59;;;;;;;20.27;6.80;;;10.40;1.00;;;;;;5050452;28;20203;-64
2022/11/26 11:13:55;;;;;;;8.00;4.90;;;10.50;1.00;;;;;;5047370;28;20470;-63
2022/11/26 11:16:26;;;;;;;12.50;6.70;;;10.50;1.00;;;;;;5039686;28;20455;-63
2022/11/26 11:18:56;;;;;;;13.57;5.33;;;10.50;1.00;;;;;;5048496;28;20933;-64
2022/11/26 11:21:33;;;;;;;15.03;5.63;;;10.50;1.00;;;;;;5045702;28;20468;-64
2022/11/26 11:24:20;;;;;;;10.23;4.70;;;10.40;1.00;;;;;;5043800;28;20442;-62
2022/11/26 11:26:52;;;;;;;12.77;5.27;;;10.40;1.00;;;;;;5046148;28;20809;-66
2022/11/26 11:29:31;;;;;;;14.40;5.00;;;10.50;1.00;;;;;;5049608;28;20682;-63
2022/11/26 11:31:58;;;;;;;12.13;6.00;;;10.60;1.00;;;;;;5046558;28;20460;-65
2022/11/26 11:34:37;;;;;;;10.60;4.23;;;10.70;1.00;;;;;;5047338;28;20451;-64
2022/11/26 11:37:13;;;;;;;8.93;5.10;;;10.50;1.00;;;;;;5047437;28;20492;-63
2022/11/26 11:39:38;;;;;;;16.60;5.03;;;10.60;1.00;;;;;;5044650;28;20424;-62
2022/11/26 11:42:16;;;;;;;8.53;4.40;;;10.60;1.00;;;;;;5044420;28;20759;-63
2022/11/26 11:44:45;;;;;;;10.57;4.50;;;10.70;1.00;;;;;;5043098;28;20176;-63
2022/11/26 11:47:38;;;;;;;8.17;4.67;;;10.70;1.00;;;;;;5052551;28;20469;-63
2022/11/26 11:50:22;;;;;;;10.63;5.00;;;10.80;1.00;;;;;;5045575;28;20945;-63
2022/11/26 11:52:58;;;;;;;8.33;5.00;;;10.90;1.00;;;;;;5058797;28;20519;-64
2022/11/26 11:55:24;;;;;;;11.80;4.90;;;10.90;1.00;;;;;;5049053;28;21243;-64
2022/11/26 11:57:58;;;;;;;11.27;4.93;;;11.00;1.00;;;;;;5045074;28;20451;-64
2022/11/26 12:00:36;;;;;;;8.83;4.73;;;11.10;1.00;;;;;;5050529;28;20736;-64
2022/11/26 12:03:34;;;;;;;12.23;5.30;;;11.20;1.00;;;;;;5058532;28;20435;-64
2022/11/26 12:06:07;;;;;;;10.17;4.70;;;11.10;1.00;;;;;;5049290;28;20506;-63
2022/11/26 12:09:00;;;;;;;12.67;5.30;;;11.30;1.00;;;;;;5045824;28;20463;-64
2022/11/26 12:11:29;;;;;;;13.73;5.43;;;11.20;1.00;;;;;;5069420;28;20460;-64
2022/11/26 12:14:05;;;;;;;8.40;5.13;;;11.30;1.00;;;;;;5058065;28;20438;-64
2022/11/26 12:16:39;;;;;;;10.13;4.43;;;11.10;1.00;;;;;;5042033;28;20510;-64
2022/11/26 12:19:28;;;;;;;11.67;5.20;;;11.00;1.00;;;;;;5050352;28;20425;-64
2022/11/26 12:22:11;;;;;;;10.87;5.00;;;11.10;1.00;;;;;;5048164;28;20445;-66
2022/11/26 12:24:45;;;;;;;10.87;5.10;;;11.10;1.00;;;;;;5054758;28;20830;-64
2022/11/26 12:27:22;;;;;;;13.23;4.70;;;11.00;1.00;;;;;;5047228;28;20449;-64
2022/11/26 12:29:54;;;;;;;8.80;4.90;;;11.10;1.00;;;;;;5050011;28;20958;-65
2022/11/26 12:32:39;;;;;;;11.97;4.57;;;11.10;1.00;;;;;;5049488;28;20460;-65
2022/11/26 12:35:16;;;;;;;12.57;4.97;;;11.00;1.00;;;;;;5048321;28;20459;-63
2022/11/26 12:37:43;;;;;;;14.43;4.70;;;11.00;1.00;;;;;;5049612;28;21027;-63
2022/11/26 12:40:18;;;;;;;13.53;5.40;;;11.10;1.00;;;;;;5048943;28;20536;-64
2022/11/26 12:43:12;;;;;;;11.13;5.30;;;11.10;1.00;;;;;;5065790;28;20781;-64
2022/11/26 12:46:01;;;;;;;10.97;4.40;;;11.30;1.00;;;;;;5040303;28;20444;-64
2022/11/26 12:48:55;;;;;;;12.03;4.77;;;11.10;1.00;;;;;;5048307;28;20425;-65
2022/11/26 12:51:33;;;;;;;13.23;5.43;;;11.10;1.00;;;;;;5044475;28;20483;-64
2022/11/26 12:54:25;;;;;;;11.10;4.33;;;11.20;1.00;;;;;;5064004;28;20972;-64
2022/11/26 12:57:22;;;;;;;14.70;5.30;;;11.10;1.00;;;;;;5045673;28;20463;-64
2022/11/26 12:59:53;;;;;;;9.67;5.40;;;11.10;1.00;;;;;;5052043;28;20521;-65
2022/11/26 13:02:24;;;;;;;8.73;5.10;;;11.00;1.00;;;;;;5047319;28;20460;-64
2022/11/26 13:04:51;;;;;;;13.37;4.87;;;11.00;1.00;;;;;;5048588;28;21096;-64
2022/11/26 13:07:22;;;;;;;17.10;4.97;;;11.10;1.00;;;;;;5046528;28;20473;-66
2022/11/26 13:10:09;;;;;;;7.50;4.87;;;11.10;1.00;;;;;;5049421;28;20423;-64